createdAt,value
2023-05-25T00:01:44.278Z,36.43
2023-05-25T00:04:42.362Z,36.58
2023-05-25T00:07:30.917Z,35.90
2023-05-25T00:10:14.879Z,36.22
2023-05-25T00:13:10.379Z,35.80
2023-05-25T00:15:56.059Z,35.69
2023-05-25T00:19:00.823Z,36.56
2023-05-25T00:21:48.812Z,36.25
2023-05-25T00:24:37.287Z,37.86
2023-05-25T00:27:21.308Z,37.89
2023-05-25T00:30:17.002Z,37.42
2023-05-25T00:32:58.016Z,37.55
2023-05-25T00:35:45.348Z,37.82
2023-05-25T00:38:32.426Z,38.34
2023-05-25T00:41:19.759Z,38.35
2023-05-25T00:44:10.522Z,37.88
2023-05-25T00:47:12.064Z,37.45
2023-05-25T00:50:01.193Z,37.28
2023-05-25T00:52:49.249Z,37.62
2023-05-25T00:55:45.734Z,37.94
2023-05-25T00:58:26.625Z,37.65
2023-05-25T01:01:12.316Z,36.94
2023-05-25T01:04:00.305Z,35.97
2023-05-25T01:06:46.066Z,36.62
2023-05-25T01:09:27.672Z,37.04
2023-05-25T01:12:15.156Z,37.45
2023-05-25T01:15:09.729Z,37.21
2023-05-25T01:17:54.320Z,36.88
2023-05-25T01:20:40.482Z,37.19
2023-05-25T01:23:32.103Z,38.07
2023-05-25T01:26:19.059Z,37.93
2023-05-25T01:29:02.482Z,37.79
2023-05-25T01:31:41.652Z,37.22
2023-05-25T01:34:29.246Z,37.85
2023-05-25T01:37:35.279Z,37.70
2023-05-25T01:40:20.252Z,38.77
2023-05-25T01:43:01.254Z,38.88
2023-05-25T01:45:49.530Z,38.96
2023-05-25T01:48:44.066Z,39.10
2023-05-25T01:51:41.765Z,38.41
2023-05-25T01:54:34.457Z,39.66
2023-05-25T01:57:18.037Z,39.03
2023-05-25T02:00:08.394Z,39.41
2023-05-25T02:02:57.338Z,39.64
2023-05-25T02:05:49.736Z,39.70
2023-05-25T02:08:34.130Z,40.14
2023-05-25T02:11:20.688Z,39.83
2023-05-25T02:14:09.309Z,39.96
2023-05-25T02:17:00.004Z,39.61
2023-05-25T02:19:40.300Z,39.61
2023-05-25T02:22:47.260Z,39.34
2023-05-25T02:25:47.777Z,39.26
2023-05-25T02:28:36.198Z,39.61
2023-05-25T02:31:22.286Z,39.53
2023-05-25T02:34:04.884Z,39.57
2023-05-25T02:36:57.943Z,38.22
2023-05-25T02:39:46.270Z,38.06
2023-05-25T02:42:41.760Z,38.09
2023-05-25T02:45:36.995Z,37.39
2023-05-25T02:48:18.029Z,37.43
2023-05-25T02:51:21.873Z,37.44
2023-05-25T02:54:12.743Z,37.19
2023-05-25T02:57:06.652Z,37.08
2023-05-25T02:59:54.250Z,37.08
2023-05-25T03:02:41.180Z,37.25
2023-05-25T03:05:39.129Z,37.05
2023-05-25T03:08:23.064Z,37.21
2023-05-25T03:11:17.561Z,36.99
2023-05-25T03:14:11.302Z,37.13
2023-05-25T03:17:04.878Z,36.79
2023-05-25T03:19:55.327Z,36.75
2023-05-25T03:22:35.176Z,36.74
2023-05-25T03:25:16.017Z,37.08
2023-05-25T03:28:11.373Z,36.40
2023-05-25T03:30:56.896Z,36.57
2023-05-25T03:33:40.534Z,36.68
2023-05-25T03:36:33.707Z,36.32
2023-05-25T03:39:31.676Z,36.57
2023-05-25T03:42:17.726Z,36.98
2023-05-25T03:45:10.253Z,36.97
2023-05-25T03:47:57.325Z,36.75
2023-05-25T03:50:44.917Z,36.52
2023-05-25T03:53:38.882Z,37.35
2023-05-25T03:56:26.349Z,36.87
2023-05-25T03:59:09.690Z,36.27
2023-05-25T04:01:50.712Z,37.31
2023-05-25T04:04:33.307Z,37.29
2023-05-25T04:07:16.362Z,37.27
2023-05-25T04:10:10.742Z,38.45
2023-05-25T04:12:57.445Z,38.15
2023-05-25T04:15:46.705Z,38.04
2023-05-25T04:18:33.738Z,38.59
2023-05-25T04:21:23.965Z,40.36
2023-05-25T04:24:19.403Z,41.03
2023-05-25T04:27:05.752Z,41.10
2023-05-25T04:30:00.920Z,40.59
2023-05-25T04:33:04.377Z,41.27
2023-05-25T04:35:54.555Z,40.97
2023-05-25T04:38:44.685Z,40.43
2023-05-25T04:41:36.890Z,40.62
2023-05-25T04:44:28.601Z,40.21
2023-05-25T04:47:18.249Z,40.25
2023-05-25T04:50:10.760Z,39.79
2023-05-25T04:53:02.286Z,39.42
2023-05-25T04:55:49.614Z,39.18
2023-05-25T04:58:32.884Z,38.78
2023-05-25T05:01:18.313Z,38.59
2023-05-25T05:04:04.871Z,37.80
2023-05-25T05:06:50.961Z,38.86
2023-05-25T05:09:40.608Z,37.34
2023-05-25T05:12:23.327Z,37.55
2023-05-25T05:15:05.418Z,36.14
2023-05-25T05:17:49.680Z,37.35
2023-05-25T05:20:44.488Z,35.56
2023-05-25T05:23:34.836Z,36.00
2023-05-25T05:26:24.451Z,35.72
2023-05-25T05:29:06.315Z,35.65
2023-05-25T05:31:56.659Z,34.31
2023-05-25T05:34:51.245Z,34.55
2023-05-25T05:37:54.696Z,33.78
2023-05-25T05:40:42.068Z,33.84
2023-05-25T05:43:36.792Z,33.28
2023-05-25T05:46:27.330Z,34.48
2023-05-25T05:49:19.293Z,35.06
2023-05-25T05:52:00.323Z,34.25
2023-05-25T05:54:56.474Z,33.80
2023-05-25T05:57:40.373Z,32.09
2023-05-25T06:00:23.672Z,32.39
2023-05-25T06:03:01.349Z,31.45
2023-05-25T06:05:53.356Z,31.38
2023-05-25T06:08:31.745Z,31.13
2023-05-25T06:11:23.297Z,30.95
2023-05-25T06:14:15.699Z,31.37
2023-05-25T06:17:06.483Z,30.15
2023-05-25T06:19:55.791Z,29.34
2023-05-25T06:22:36.700Z,30.38
2023-05-25T06:25:24.817Z,30.51
2023-05-25T06:28:10.320Z,30.00
2023-05-25T06:30:56.174Z,29.05
2023-05-25T06:33:37.273Z,29.26
2023-05-25T06:36:23.719Z,27.60
2023-05-25T06:39:22.612Z,28.39
2023-05-25T06:42:10.230Z,28.81
2023-05-25T06:45:08.367Z,29.34
2023-05-25T06:47:52.296Z,28.96
2023-05-25T06:50:33.956Z,28.38
2023-05-25T06:53:18.385Z,28.72
2023-05-25T06:55:59.869Z,26.97
2023-05-25T06:58:41.111Z,28.26
2023-05-25T07:01:20.321Z,26.66
2023-05-25T07:03:58.654Z,27.76
2023-05-25T07:06:47.188Z,26.88
2023-05-25T07:12:26.972Z,26.57
2023-05-25T07:15:05.117Z,26.05
2023-05-25T07:17:58.281Z,26.61
2023-05-25T07:20:43.491Z,25.74
2023-05-25T07:23:29.183Z,26.41
2023-05-25T07:26:14.568Z,25.07
2023-05-25T07:29:06.576Z,25.03
2023-05-25T07:32:06.094Z,25.54
2023-05-25T07:34:41.618Z,24.51
2023-05-25T07:37:26.157Z,25.78
2023-05-25T07:40:10.227Z,26.06
2023-05-25T07:42:54.227Z,25.71
2023-05-25T07:45:36.671Z,24.15
2023-05-25T07:48:24.298Z,24.57
2023-05-25T07:51:05.379Z,24.27
2023-05-25T07:53:46.423Z,24.13
2023-05-25T07:56:31.812Z,24.27
2023-05-25T07:59:20.056Z,23.47
2023-05-25T08:02:04.090Z,23.31
2023-05-25T08:04:53.134Z,24.05
2023-05-25T08:07:37.005Z,24.44
2023-05-25T08:10:23.692Z,23.99
2023-05-25T08:13:05.517Z,22.44
2023-05-25T08:15:56.230Z,24.51
2023-05-25T08:18:37.081Z,24.53
2023-05-25T08:21:24.067Z,25.36
2023-05-25T08:24:05.230Z,24.42
2023-05-25T08:26:57.106Z,26.58
2023-05-25T08:29:42.476Z,24.95
2023-05-25T08:32:55.281Z,26.08
2023-05-25T08:35:44.607Z,24.38
2023-05-25T08:38:31.070Z,24.55
2023-05-25T08:41:30.652Z,24.37
2023-05-25T08:44:14.612Z,25.41
2023-05-25T08:46:59.463Z,26.16
2023-05-25T08:49:56.267Z,26.71
2023-05-25T08:52:51.822Z,27.20
2023-05-25T08:55:42.388Z,25.89
2023-05-25T08:58:37.414Z,25.14
2023-05-25T09:01:29.824Z,25.76
2023-05-25T09:04:08.348Z,25.95
2023-05-25T09:07:10.448Z,25.31
2023-05-25T09:10:07.340Z,25.89
2023-05-25T09:12:52.086Z,25.57
2023-05-25T09:15:46.845Z,24.94
2023-05-25T09:18:30.801Z,25.28
2023-05-25T09:21:23.926Z,25.02
2023-05-25T09:24:03.298Z,25.43
2023-05-25T09:26:49.861Z,25.96
2023-05-25T09:29:44.057Z,26.28
2023-05-25T09:32:40.951Z,24.53
2023-05-25T09:35:19.729Z,25.12
2023-05-25T09:38:05.140Z,24.98
2023-05-25T09:40:53.070Z,24.44
2023-05-25T09:44:02.137Z,25.05
2023-05-25T09:47:07.187Z,22.97
2023-05-25T09:49:43.280Z,24.44
2023-05-25T09:52:31.798Z,24.07
2023-05-25T09:55:09.604Z,24.46
2023-05-25T09:58:06.067Z,24.51
2023-05-25T10:00:47.804Z,25.99
2023-05-25T10:03:28.786Z,23.15
2023-05-25T10:06:10.966Z,23.37
2023-05-25T10:09:01.406Z,23.05
2023-05-25T10:11:42.446Z,24.11
2023-05-25T10:20:56.329Z,23.91
2023-05-25T10:23:42.191Z,23.63
2023-05-25T10:26:23.021Z,24.08
2023-05-25T10:29:10.292Z,22.88
2023-05-25T10:31:51.885Z,22.84
2023-05-25T10:34:43.277Z,23.27
2023-05-25T10:37:23.664Z,21.58
2023-05-25T10:40:00.516Z,21.96
2023-05-25T10:42:51.629Z,22.99
2023-05-25T10:45:39.571Z,23.76
2023-05-25T10:48:26.081Z,24.68
2023-05-25T10:51:15.116Z,23.69
2023-05-25T10:54:07.611Z,23.55
2023-05-25T10:57:28.277Z,23.96
2023-05-25T11:00:09.309Z,24.07
2023-05-25T11:03:08.014Z,24.43
2023-05-25T11:05:56.516Z,25.53
2023-05-25T11:09:03.640Z,24.08
2023-05-25T11:11:53.280Z,23.50
2023-05-25T11:14:47.309Z,24.42
2023-05-25T11:17:33.304Z,24.61
2023-05-25T11:20:25.304Z,24.33
2023-05-25T11:23:34.858Z,24.35
2023-05-25T11:26:24.779Z,24.24
2023-05-25T11:29:02.184Z,24.03
2023-05-25T11:34:49.021Z,25.17
2023-05-25T11:37:39.152Z,25.27
2023-05-25T11:40:33.351Z,24.89
2023-05-25T11:43:18.400Z,25.55
2023-05-25T11:46:15.267Z,25.20
2023-05-25T11:49:02.856Z,24.82
2023-05-25T11:51:44.506Z,24.66
2023-05-25T11:54:33.475Z,23.45
2023-05-25T11:57:23.754Z,24.12
2023-05-25T12:00:11.605Z,22.76
2023-05-25T12:02:51.139Z,23.67
2023-05-25T12:05:29.506Z,23.32
2023-05-25T12:08:13.294Z,22.56
2023-05-25T12:11:08.704Z,21.99
2023-05-25T12:13:48.340Z,23.15
2023-05-25T12:16:39.150Z,21.75
2023-05-25T12:19:27.417Z,21.58
2023-05-25T12:22:23.492Z,21.52
2023-05-25T12:25:02.038Z,20.49
2023-05-25T12:27:40.923Z,22.08
2023-05-25T12:30:16.901Z,20.43
2023-05-25T12:33:33.717Z,19.83
2023-05-25T12:36:15.546Z,20.82
2023-05-25T12:39:12.631Z,21.50
2023-05-25T12:41:55.002Z,20.31
2023-05-25T12:44:47.884Z,21.13
2023-05-25T12:47:29.357Z,19.75
2023-05-25T12:50:20.022Z,18.66
2023-05-25T12:53:06.295Z,19.82
2023-05-25T12:56:25.040Z,19.10
2023-05-25T12:59:36.617Z,20.14
2023-05-25T13:02:15.846Z,20.00
2023-05-25T13:04:51.533Z,20.16
2023-05-25T13:07:39.326Z,21.10
2023-05-25T13:10:29.998Z,19.15
2023-05-25T13:13:17.514Z,20.43
2023-05-25T13:15:56.530Z,19.39
2023-05-25T13:18:31.671Z,20.09
2023-05-25T13:21:11.308Z,21.27
2023-05-25T13:23:57.622Z,21.33
2023-05-25T13:26:38.834Z,20.36
2023-05-25T13:29:24.066Z,21.33
2023-05-25T13:32:06.439Z,19.82
2023-05-25T13:34:53.081Z,18.98
2023-05-25T13:37:47.614Z,19.42
2023-05-25T13:43:29.940Z,21.27
2023-05-25T13:46:21.866Z,21.42
2023-05-25T13:49:17.722Z,19.80
2023-05-25T13:52:02.346Z,19.29
2023-05-25T13:58:24.358Z,20.11
2023-05-25T14:01:21.025Z,20.63
2023-05-25T14:04:13.284Z,19.76
2023-05-25T14:07:05.049Z,20.25
2023-05-25T14:09:50.391Z,19.14
2023-05-25T14:12:34.615Z,20.11
2023-05-25T14:15:39.308Z,20.13
2023-05-25T14:21:16.476Z,19.43
2023-05-25T14:24:42.783Z,20.87
2023-05-25T14:27:33.218Z,21.31
2023-05-25T14:30:40.222Z,20.48
2023-05-25T14:33:33.058Z,20.15
2023-05-25T14:36:28.591Z,21.04
2023-05-25T14:39:25.164Z,20.19
2023-05-25T14:45:16.488Z,20.42
2023-05-25T14:48:15.820Z,19.61
2023-05-25T14:51:13.915Z,20.14
2023-05-25T14:54:10.770Z,19.16
2023-05-25T14:56:56.266Z,18.82
2023-05-25T14:59:44.722Z,19.61
2023-05-25T15:02:28.855Z,19.33
2023-05-25T15:05:11.278Z,18.95
2023-05-25T15:07:48.254Z,18.49
2023-05-25T15:10:31.253Z,19.05
2023-05-25T15:13:18.802Z,19.17
2023-05-25T15:16:08.250Z,18.78
2023-05-25T15:18:55.705Z,20.73
2023-05-25T15:21:43.822Z,20.55
2023-05-25T15:24:30.129Z,20.30
2023-05-25T15:27:14.285Z,20.25
2023-05-25T15:30:04.365Z,20.72
2023-05-25T15:32:51.523Z,20.92
2023-05-25T15:35:35.027Z,21.38
2023-05-25T15:38:19.318Z,21.67
2023-05-25T15:41:00.239Z,21.19
2023-05-25T15:43:44.256Z,21.92
2023-05-25T15:46:28.312Z,21.24
2023-05-25T15:49:11.701Z,21.34
2023-05-25T15:52:07.108Z,20.85
2023-05-25T15:54:47.304Z,20.77
2023-05-25T15:57:32.849Z,21.27
2023-05-25T16:00:12.275Z,21.72
2023-05-25T16:02:55.324Z,21.06
2023-05-25T16:05:33.823Z,21.36
2023-05-25T16:08:23.871Z,21.75
2023-05-25T16:11:11.454Z,21.18
2023-05-25T16:13:52.266Z,20.12
2023-05-25T16:16:39.626Z,21.27
2023-05-25T16:19:33.563Z,21.49
2023-05-25T16:22:16.002Z,20.97
2023-05-25T16:25:06.143Z,21.53
2023-05-25T16:27:56.814Z,22.33
2023-05-25T16:30:56.468Z,22.22
2023-05-25T16:33:46.499Z,22.43
2023-05-25T16:36:38.704Z,21.96
2023-05-25T16:39:35.909Z,22.16
2023-05-25T16:42:17.000Z,23.94
2023-05-25T16:44:52.672Z,24.68
2023-05-25T16:48:00.629Z,23.76
2023-05-25T16:50:39.639Z,24.11
2023-05-25T16:53:32.653Z,23.56
2023-05-25T16:56:11.034Z,23.55
2023-05-25T16:58:55.796Z,24.10
2023-05-25T17:01:43.711Z,23.42
2023-05-25T17:04:24.550Z,23.58
2023-05-25T17:07:16.563Z,23.33
2023-05-25T17:10:00.301Z,23.56
2023-05-25T17:12:38.836Z,23.39
2023-05-25T17:15:26.313Z,24.44
2023-05-25T17:18:10.408Z,24.50
2023-05-25T17:20:55.916Z,24.76
2023-05-25T17:23:43.463Z,24.74
2023-05-25T17:26:33.493Z,26.50
2023-05-25T17:29:15.468Z,25.97
2023-05-25T17:31:54.292Z,26.99
2023-05-25T17:34:32.513Z,26.14
2023-05-25T17:37:12.388Z,25.76
2023-05-25T17:39:54.422Z,25.98
2023-05-25T17:42:35.566Z,25.27
2023-05-25T17:45:15.900Z,25.75
2023-05-25T17:48:08.129Z,25.40
2023-05-25T17:50:44.570Z,26.41
2023-05-25T17:53:24.892Z,26.15
2023-05-25T17:56:09.720Z,26.61
2023-05-25T17:58:50.776Z,25.85
2023-05-25T18:01:46.619Z,25.94
2023-05-25T18:04:25.533Z,26.37
2023-05-25T18:07:04.368Z,26.50
2023-05-25T18:09:55.956Z,26.29
2023-05-25T18:12:40.370Z,26.51
2023-05-25T18:15:26.462Z,26.03
2023-05-25T18:18:14.845Z,26.83
2023-05-25T18:20:58.749Z,27.45
2023-05-25T18:23:40.581Z,27.79
2023-05-25T18:26:28.349Z,27.75
2023-05-25T18:29:12.870Z,28.71
2023-05-25T18:31:53.796Z,28.08
2023-05-25T18:34:47.287Z,27.61
2023-05-25T18:37:31.332Z,29.15
2023-05-25T18:40:20.107Z,29.60
2023-05-25T18:43:11.782Z,29.37
2023-05-25T18:45:56.609Z,29.31
2023-05-25T18:48:46.587Z,29.06
2023-05-25T18:51:37.200Z,29.39
2023-05-25T18:54:25.631Z,29.84
2023-05-25T18:57:11.390Z,29.98
2023-05-25T18:59:55.361Z,29.82
2023-05-25T19:02:33.457Z,30.23
2023-05-25T19:05:19.214Z,29.94
2023-05-25T19:08:02.792Z,30.28
2023-05-25T19:10:44.554Z,30.71
2023-05-25T19:13:31.297Z,29.81
2023-05-25T19:16:34.154Z,30.27
2023-05-25T19:19:15.111Z,30.77
2023-05-25T19:22:09.454Z,30.80
2023-05-25T19:25:01.282Z,30.61
2023-05-25T19:27:53.317Z,30.61
2023-05-25T19:30:41.356Z,29.83
2023-05-25T19:33:24.596Z,30.31
2023-05-25T19:36:05.653Z,29.82
2023-05-25T19:38:52.936Z,29.89
2023-05-25T19:41:31.488Z,29.42
2023-05-25T19:44:12.485Z,29.57
2023-05-25T19:46:55.984Z,29.15
2023-05-25T19:49:34.593Z,29.19
2023-05-25T19:52:27.312Z,28.87
2023-05-25T19:55:24.633Z,29.22
2023-05-25T19:58:12.194Z,29.95
2023-05-25T20:00:58.858Z,29.86
2023-05-25T20:03:48.185Z,30.66
2023-05-25T20:06:38.744Z,30.11
2023-05-25T20:09:23.402Z,30.80
2023-05-25T20:12:11.707Z,30.52
2023-05-25T20:14:54.967Z,30.19
2023-05-25T20:17:37.588Z,30.55
2023-05-25T20:20:18.768Z,31.16
2023-05-25T20:22:59.281Z,30.88
2023-05-25T20:25:48.051Z,31.01
2023-05-25T20:28:37.983Z,30.59
2023-05-25T20:31:21.683Z,30.69
2023-05-25T20:34:09.333Z,30.91
2023-05-25T20:36:53.733Z,30.54
2023-05-25T20:39:45.771Z,30.42
2023-05-25T20:42:29.554Z,30.91
2023-05-25T20:45:19.099Z,30.47
2023-05-25T20:48:10.178Z,30.72
2023-05-25T20:50:57.728Z,30.99
2023-05-25T20:53:51.860Z,30.73
2023-05-25T20:56:38.820Z,30.24
2023-05-25T20:59:33.725Z,31.64
2023-05-25T21:02:10.363Z,31.74
2023-05-25T21:04:59.775Z,32.00
2023-05-25T21:07:56.686Z,31.86
2023-05-25T21:10:38.308Z,31.74
2023-05-25T21:13:27.218Z,32.14
2023-05-25T21:16:12.967Z,32.44
2023-05-25T21:19:04.367Z,32.64
2023-05-25T21:22:04.858Z,32.26
2023-05-25T21:24:45.965Z,31.83
2023-05-25T21:27:30.712Z,31.82
2023-05-25T21:30:09.445Z,31.67
2023-05-25T21:32:45.076Z,32.53
2023-05-25T21:35:29.120Z,32.08
2023-05-25T21:38:09.677Z,33.04
2023-05-25T21:41:08.448Z,33.93
2023-05-25T21:44:06.709Z,33.31
2023-05-25T21:46:54.238Z,32.80
2023-05-25T21:49:38.130Z,33.13
2023-05-25T21:52:37.526Z,32.54
2023-05-25T21:55:30.341Z,31.71
2023-05-25T21:58:08.920Z,31.72
2023-05-25T22:00:53.169Z,31.87
2023-05-25T22:03:40.690Z,32.37
2023-05-25T22:06:30.162Z,32.50
2023-05-25T22:09:08.125Z,32.73
2023-05-25T22:11:55.481Z,33.28
2023-05-25T22:14:41.331Z,33.20
2023-05-25T22:17:20.549Z,33.71
2023-05-25T22:20:08.613Z,33.32
2023-05-25T22:22:46.506Z,33.67
2023-05-25T22:25:38.021Z,33.90
2023-05-25T22:28:17.595Z,33.64
2023-05-25T22:31:09.991Z,33.66
2023-05-25T22:33:51.270Z,34.01
2023-05-25T22:36:37.327Z,33.94
2023-05-25T22:39:25.407Z,33.27
2023-05-25T22:42:06.520Z,33.99
2023-05-25T22:44:49.560Z,33.64
2023-05-25T22:47:32.717Z,33.57
2023-05-25T22:50:25.708Z,33.98
2023-05-25T22:53:01.763Z,34.33
2023-05-25T22:55:44.553Z,33.88
2023-05-25T22:58:29.721Z,34.06
2023-05-25T23:01:09.363Z,34.19
2023-05-25T23:03:48.610Z,34.81
2023-05-25T23:06:30.617Z,34.63
2023-05-25T23:09:12.280Z,34.90
2023-05-25T23:11:53.263Z,34.60
2023-05-25T23:14:39.688Z,34.76
2023-05-25T23:17:34.805Z,34.32
2023-05-25T23:20:12.935Z,34.84
2023-05-25T23:23:05.331Z,34.77
2023-05-25T23:25:47.318Z,34.53
2023-05-25T23:28:27.881Z,34.62
2023-05-25T23:31:06.586Z,34.05
2023-05-25T23:34:02.024Z,34.35
2023-05-25T23:36:49.708Z,34.26
2023-05-25T23:39:36.071Z,34.18
2023-05-25T23:42:18.944Z,34.88
2023-05-25T23:45:00.313Z,34.72
2023-05-25T23:47:43.329Z,34.54
2023-05-25T23:50:21.459Z,34.76
2023-05-25T23:53:06.156Z,34.51
2023-05-25T23:55:52.879Z,34.24
2023-05-25T23:58:34.483Z,34.38
